sensor_id;sensor_type;location;lat;lon;timestamp;temperature;humidity
7900;DHT22;3995;50.856;4.404;2023-04-01T00:01:58;13.70;70.70
7900;DHT22;3995;50.856;4.404;2023-04-01T00:04:25;13.70;70.70
7900;DHT22;3995;50.856;4.404;2023-04-01T00:06:52;13.70;70.70
7900;DHT22;3995;50.856;4.404;2023-04-01T00:09:20;13.70;70.70
7900;DHT22;3995;50.856;4.404;2023-04-01T00:11:48;13.70;70.60
7900;DHT22;3995;50.856;4.404;2023-04-01T00:14:15;13.70;70.60
7900;DHT22;3995;50.856;4.404;2023-04-01T00:16:43;13.70;70.60
7900;DHT22;3995;50.856;4.404;2023-04-01T00:19:10;13.70;70.60
7900;DHT22;3995;50.856;4.404;2023-04-01T00:21:37;13.70;70.60
7900;DHT22;3995;50.856;4.404;2023-04-01T00:24:04;13.70;70.60
7900;DHT22;3995;50.856;4.404;2023-04-01T00:26:32;13.70;70.70
7900;DHT22;3995;50.856;4.404;2023-04-01T00:29:01;13.70;70.70
7900;DHT22;3995;50.856;4.404;2023-04-01T00:31:28;13.70;70.70
7900;DHT22;3995;50.856;4.404;2023-04-01T00:33:55;13.70;70.80
7900;DHT22;3995;50.856;4.404;2023-04-01T00:36:23;13.70;70.70
7900;DHT22;3995;50.856;4.404;2023-04-01T00:38:50;13.70;70.80
7900;DHT22;3995;50.856;4.404;2023-04-01T00:41:19;13.70;70.80
7900;DHT22;3995;50.856;4.404;2023-04-01T00:43:48;13.70;70.80
7900;DHT22;3995;50.856;4.404;2023-04-01T00:46:18;13.70;70.80
7900;DHT22;3995;50.856;4.404;2023-04-01T00:48:47;13.70;70.80
7900;DHT22;3995;50.856;4.404;2023-04-01T00:51:18;13.70;70.80
7900;DHT22;3995;50.856;4.404;2023-04-01T00:53:49;13.70;70.80
7900;DHT22;3995;50.856;4.404;2023-04-01T00:56:19;13.70;70.80
7900;DHT22;3995;50.856;4.404;2023-04-01T00:58:51;13.70;70.80
7900;DHT22;3995;50.856;4.404;2023-04-01T01:01:24;13.70;71.00
7900;DHT22;3995;50.856;4.404;2023-04-01T01:03:51;13.70;70.90
7900;DHT22;3995;50.856;4.404;2023-04-01T01:06:30;13.70;70.90
7900;DHT22;3995;50.856;4.404;2023-04-01T01:09:12;13.70;70.90
7900;DHT22;3995;50.856;4.404;2023-04-01T01:11:42;13.70;70.90
7900;DHT22;3995;50.856;4.404;2023-04-01T01:14:24;13.70;71.60
7900;DHT22;3995;50.856;4.404;2023-04-01T01:16:59;13.80;70.90
7900;DHT22;3995;50.856;4.404;2023-04-01T01:19:50;13.80;70.90
7900;DHT22;3995;50.856;4.404;2023-04-01T01:22:39;13.80;70.80
7900;DHT22;3995;50.856;4.404;2023-04-01T01:25:18;13.80;70.70
7900;DHT22;3995;50.856;4.404;2023-04-01T01:27:56;13.70;70.70
7900;DHT22;3995;50.856;4.404;2023-04-01T01:30:38;13.70;70.60
7900;DHT22;3995;50.856;4.404;2023-04-01T01:33:35;13.70;70.50
7900;DHT22;3995;50.856;4.404;2023-04-01T01:36:09;13.70;70.60
7900;DHT22;3995;50.856;4.404;2023-04-01T01:38:39;13.70;70.70
7900;DHT22;3995;50.856;4.404;2023-04-01T01:41:08;13.70;70.80
7900;DHT22;3995;50.856;4.404;2023-04-01T01:43:40;13.70;70.80
7900;DHT22;3995;50.856;4.404;2023-04-01T01:46:11;13.80;70.90
7900;DHT22;3995;50.856;4.404;2023-04-01T01:48:42;13.70;70.80
7900;DHT22;3995;50.856;4.404;2023-04-01T01:51:11;13.70;70.80
7900;DHT22;3995;50.856;4.404;2023-04-01T01:53:38;13.70;70.90
7900;DHT22;3995;50.856;4.404;2023-04-01T01:56:06;13.70;70.90
7900;DHT22;3995;50.856;4.404;2023-04-01T01:58:36;13.70;70.90
7900;DHT22;3995;50.856;4.404;2023-04-01T02:01:08;13.80;71.00
7900;DHT22;3995;50.856;4.404;2023-04-01T02:03:37;13.70;70.80
7900;DHT22;3995;50.856;4.404;2023-04-01T02:06:08;13.70;70.70
7900;DHT22;3995;50.856;4.404;2023-04-01T02:08:40;13.70;70.60
7900;DHT22;3995;50.856;4.404;2023-04-01T02:11:10;13.70;70.60
7900;DHT22;3995;50.856;4.404;2023-04-01T02:13:41;13.70;70.60
7900;DHT22;3995;50.856;4.404;2023-04-01T02:16:14;13.70;70.40
7900;DHT22;3995;50.856;4.404;2023-04-01T02:18:44;13.70;70.20
7900;DHT22;3995;50.856;4.404;2023-04-01T02:21:12;13.60;70.10
7900;DHT22;3995;50.856;4.404;2023-04-01T02:23:42;13.60;70.10
7900;DHT22;3995;50.856;4.404;2023-04-01T02:26:10;13.60;70.10
7900;DHT22;3995;50.856;4.404;2023-04-01T02:28:38;13.60;70.20
7900;DHT22;3995;50.856;4.404;2023-04-01T02:31:08;13.60;70.20
7900;DHT22;3995;50.856;4.404;2023-04-01T02:33:38;13.60;70.00
7900;DHT22;3995;50.856;4.404;2023-04-01T02:36:06;13.60;70.00
7900;DHT22;3995;50.856;4.404;2023-04-01T02:38:36;13.60;70.00
7900;DHT22;3995;50.856;4.404;2023-04-01T02:41:06;13.60;70.00
7900;DHT22;3995;50.856;4.404;2023-04-01T02:43:33;13.60;70.00
7900;DHT22;3995;50.856;4.404;2023-04-01T02:46:01;13.60;70.00
7900;DHT22;3995;50.856;4.404;2023-04-01T02:48:28;13.60;70.00
7900;DHT22;3995;50.856;4.404;2023-04-01T02:50:56;13.60;70.00
7900;DHT22;3995;50.856;4.404;2023-04-01T02:53:23;13.50;69.90
7900;DHT22;3995;50.856;4.404;2023-04-01T02:55:50;13.50;69.90
7900;DHT22;3995;50.856;4.404;2023-04-01T02:58:19;13.50;69.90
7900;DHT22;3995;50.856;4.404;2023-04-01T03:00:46;13.50;69.90
7900;DHT22;3995;50.856;4.404;2023-04-01T03:03:13;13.50;69.90
7900;DHT22;3995;50.856;4.404;2023-04-01T03:05:40;13.50;69.90
7900;DHT22;3995;50.856;4.404;2023-04-01T03:08:07;13.50;69.80
7900;DHT22;3995;50.856;4.404;2023-04-01T03:10:35;13.50;69.90
7900;DHT22;3995;50.856;4.404;2023-04-01T03:13:03;13.50;69.80
7900;DHT22;3995;50.856;4.404;2023-04-01T03:15:32;13.50;69.80
7900;DHT22;3995;50.856;4.404;2023-04-01T03:17:59;13.50;69.70
7900;DHT22;3995;50.856;4.404;2023-04-01T03:20:26;13.50;69.80
7900;DHT22;3995;50.856;4.404;2023-04-01T03:22:54;13.50;70.00
7900;DHT22;3995;50.856;4.404;2023-04-01T03:25:21;13.50;70.10
7900;DHT22;3995;50.856;4.404;2023-04-01T03:27:48;13.50;70.10
7900;DHT22;3995;50.856;4.404;2023-04-01T03:30:15;13.50;70.10
7900;DHT22;3995;50.856;4.404;2023-04-01T03:32:44;13.50;70.10
7900;DHT22;3995;50.856;4.404;2023-04-01T03:35:12;13.50;70.10
7900;DHT22;3995;50.856;4.404;2023-04-01T03:37:39;13.50;70.30
7900;DHT22;3995;50.856;4.404;2023-04-01T03:40:08;13.50;70.20
7900;DHT22;3995;50.856;4.404;2023-04-01T03:42:35;13.50;70.10
7900;DHT22;3995;50.856;4.404;2023-04-01T03:45:02;13.50;69.90
7900;DHT22;3995;50.856;4.404;2023-04-01T03:47:30;13.50;69.90
7900;DHT22;3995;50.856;4.404;2023-04-01T03:49:59;13.50;69.80
7900;DHT22;3995;50.856;4.404;2023-04-01T03:52:26;13.50;69.70
7900;DHT22;3995;50.856;4.404;2023-04-01T03:54:53;13.50;69.70
7900;DHT22;3995;50.856;4.404;2023-04-01T03:57:21;13.50;69.80
7900;DHT22;3995;50.856;4.404;2023-04-01T03:59:48;13.50;70.30
7900;DHT22;3995;50.856;4.404;2023-04-01T04:02:15;13.50;69.60
7900;DHT22;3995;50.856;4.404;2023-04-01T04:04:42;13.50;69.60
7900;DHT22;3995;50.856;4.404;2023-04-01T04:07:12;13.50;69.60
7900;DHT22;3995;50.856;4.404;2023-04-01T04:09:39;13.50;69.60
7900;DHT22;3995;50.856;4.404;2023-04-01T04:12:06;13.50;69.60
7900;DHT22;3995;50.856;4.404;2023-04-01T04:14:34;13.50;69.60
7900;DHT22;3995;50.856;4.404;2023-04-01T04:17:01;13.50;69.60
7900;DHT22;3995;50.856;4.404;2023-04-01T04:19:32;13.50;69.60
7900;DHT22;3995;50.856;4.404;2023-04-01T04:22:00;13.50;69.60
7900;DHT22;3995;50.856;4.404;2023-04-01T04:24:28;13.50;69.60
7900;DHT22;3995;50.856;4.404;2023-04-01T04:26:55;13.50;69.60
7900;DHT22;3995;50.856;4.404;2023-04-01T04:29:23;13.50;69.70
7900;DHT22;3995;50.856;4.404;2023-04-01T04:31:50;13.40;69.70
7900;DHT22;3995;50.856;4.404;2023-04-01T04:34:17;13.40;69.90
7900;DHT22;3995;50.856;4.404;2023-04-01T04:36:45;13.40;69.90
7900;DHT22;3995;50.856;4.404;2023-04-01T04:39:11;13.40;70.00
7900;DHT22;3995;50.856;4.404;2023-04-01T04:41:40;13.40;70.00
7900;DHT22;3995;50.856;4.404;2023-04-01T04:44:08;13.40;70.00
7900;DHT22;3995;50.856;4.404;2023-04-01T04:46:35;13.40;70.10
7900;DHT22;3995;50.856;4.404;2023-04-01T04:49:03;13.40;70.20
7900;DHT22;3995;50.856;4.404;2023-04-01T04:51:30;13.40;70.20
7900;DHT22;3995;50.856;4.404;2023-04-01T04:53:59;13.50;70.30
7900;DHT22;3995;50.856;4.404;2023-04-01T04:56:26;13.50;70.20
7900;DHT22;3995;50.856;4.404;2023-04-01T04:58:55;13.40;70.00
7900;DHT22;3995;50.856;4.404;2023-04-01T05:01:22;13.40;70.00
7900;DHT22;3995;50.856;4.404;2023-04-01T05:03:50;13.40;69.90
7900;DHT22;3995;50.856;4.404;2023-04-01T05:06:18;13.40;70.00
7900;DHT22;3995;50.856;4.404;2023-04-01T05:08:45;13.40;70.10
7900;DHT22;3995;50.856;4.404;2023-04-01T05:11:16;13.40;70.20
7900;DHT22;3995;50.856;4.404;2023-04-01T05:13:44;13.40;70.20
7900;DHT22;3995;50.856;4.404;2023-04-01T05:16:15;13.40;70.20
7900;DHT22;3995;50.856;4.404;2023-04-01T05:18:42;13.40;70.10
7900;DHT22;3995;50.856;4.404;2023-04-01T05:21:11;13.40;70.20
7900;DHT22;3995;50.856;4.404;2023-04-01T05:23:38;13.40;70.30
7900;DHT22;3995;50.856;4.404;2023-04-01T05:26:06;13.40;70.30
7900;DHT22;3995;50.856;4.404;2023-04-01T05:28:33;13.40;70.20
7900;DHT22;3995;50.856;4.404;2023-04-01T05:31:02;13.40;70.20
7900;DHT22;3995;50.856;4.404;2023-04-01T05:33:33;13.40;70.10
7900;DHT22;3995;50.856;4.404;2023-04-01T05:36:06;13.40;70.00
7900;DHT22;3995;50.856;4.404;2023-04-01T05:38:34;13.40;70.00
7900;DHT22;3995;50.856;4.404;2023-04-01T05:41:02;13.40;70.10
7900;DHT22;3995;50.856;4.404;2023-04-01T05:43:29;13.40;70.00
7900;DHT22;3995;50.856;4.404;2023-04-01T05:45:56;13.40;70.10
7900;DHT22;3995;50.856;4.404;2023-04-01T05:48:23;13.40;70.10
7900;DHT22;3995;50.856;4.404;2023-04-01T05:50:52;13.40;70.10
7900;DHT22;3995;50.856;4.404;2023-04-01T05:53:19;13.40;69.90
7900;DHT22;3995;50.856;4.404;2023-04-01T05:55:47;13.40;69.90
7900;DHT22;3995;50.856;4.404;2023-04-01T05:58:15;13.40;69.90
7900;DHT22;3995;50.856;4.404;2023-04-01T06:00:42;13.40;70.00
7900;DHT22;3995;50.856;4.404;2023-04-01T06:03:10;13.40;69.90
7900;DHT22;3995;50.856;4.404;2023-04-01T06:05:39;13.40;69.80
7900;DHT22;3995;50.856;4.404;2023-04-01T06:08:12;13.40;69.70
7900;DHT22;3995;50.856;4.404;2023-04-01T06:10:52;13.40;69.70
7900;DHT22;3995;50.856;4.404;2023-04-01T06:13:29;13.40;69.60
7900;DHT22;3995;50.856;4.404;2023-04-01T06:16:09;13.40;69.50
7900;DHT22;3995;50.856;4.404;2023-04-01T06:18:57;13.40;69.60
7900;DHT22;3995;50.856;4.404;2023-04-01T06:21:37;13.40;69.60
7900;DHT22;3995;50.856;4.404;2023-04-01T06:24:21;13.30;69.60
7900;DHT22;3995;50.856;4.404;2023-04-01T06:26:59;13.40;69.70
7900;DHT22;3995;50.856;4.404;2023-04-01T06:32:49;13.40;69.80
7900;DHT22;3995;50.856;4.404;2023-04-01T06:35:35;13.40;69.90
7900;DHT22;3995;50.856;4.404;2023-04-01T06:38:20;13.30;69.90
7900;DHT22;3995;50.856;4.404;2023-04-01T06:41:08;13.40;69.90
7900;DHT22;3995;50.856;4.404;2023-04-01T06:43:46;13.40;69.70
7900;DHT22;3995;50.856;4.404;2023-04-01T06:46:21;13.30;69.70
7900;DHT22;3995;50.856;4.404;2023-04-01T06:49:05;13.30;69.60
7900;DHT22;3995;50.856;4.404;2023-04-01T06:51:42;13.30;69.40
7900;DHT22;3995;50.856;4.404;2023-04-01T06:54:16;13.30;69.40
7900;DHT22;3995;50.856;4.404;2023-04-01T06:56:48;13.30;69.50
7900;DHT22;3995;50.856;4.404;2023-04-01T06:59:18;13.30;69.50
7900;DHT22;3995;50.856;4.404;2023-04-01T07:01:48;13.30;69.50
7900;DHT22;3995;50.856;4.404;2023-04-01T07:04:20;13.30;69.40
7900;DHT22;3995;50.856;4.404;2023-04-01T07:06:52;13.30;69.40
7900;DHT22;3995;50.856;4.404;2023-04-01T07:09:22;13.30;69.40
7900;DHT22;3995;50.856;4.404;2023-04-01T07:11:54;13.30;69.40
7900;DHT22;3995;50.856;4.404;2023-04-01T07:14:27;13.30;69.40
7900;DHT22;3995;50.856;4.404;2023-04-01T07:16:59;13.30;69.60
7900;DHT22;3995;50.856;4.404;2023-04-01T07:19:32;13.30;69.60
7900;DHT22;3995;50.856;4.404;2023-04-01T07:22:04;13.30;69.60
7900;DHT22;3995;50.856;4.404;2023-04-01T07:24:34;13.30;69.60
7900;DHT22;3995;50.856;4.404;2023-04-01T07:27:08;13.30;69.50
7900;DHT22;3995;50.856;4.404;2023-04-01T07:29:36;13.40;69.70
7900;DHT22;3995;50.856;4.404;2023-04-01T07:32:25;13.40;69.90
7900;DHT22;3995;50.856;4.404;2023-04-01T07:35:09;13.40;69.70
7900;DHT22;3995;50.856;4.404;2023-04-01T07:37:47;13.40;69.90
7900;DHT22;3995;50.856;4.404;2023-04-01T07:40:27;13.40;70.00
7900;DHT22;3995;50.856;4.404;2023-04-01T07:43:32;13.40;70.00
7900;DHT22;3995;50.856;4.404;2023-04-01T07:46:08;13.40;69.80
7900;DHT22;3995;50.856;4.404;2023-04-01T07:48:44;13.40;70.10
7900;DHT22;3995;50.856;4.404;2023-04-01T07:51:15;13.40;70.10
7900;DHT22;3995;50.856;4.404;2023-04-01T07:53:47;13.40;70.90
7900;DHT22;3995;50.856;4.404;2023-04-01T07:56:21;13.40;70.30
7900;DHT22;3995;50.856;4.404;2023-04-01T07:58:57;13.50;70.50
7900;DHT22;3995;50.856;4.404;2023-04-01T08:01:30;13.50;70.40
7900;DHT22;3995;50.856;4.404;2023-04-01T08:04:20;13.50;70.40
7900;DHT22;3995;50.856;4.404;2023-04-01T08:06:55;13.50;70.10
7900;DHT22;3995;50.856;4.404;2023-04-01T08:09:32;13.50;70.30
7900;DHT22;3995;50.856;4.404;2023-04-01T08:12:15;13.40;70.10
7900;DHT22;3995;50.856;4.404;2023-04-01T08:14:56;13.50;70.10
7900;DHT22;3995;50.856;4.404;2023-04-01T08:17:32;13.50;70.30
7900;DHT22;3995;50.856;4.404;2023-04-01T08:20:14;13.40;70.30
7900;DHT22;3995;50.856;4.404;2023-04-01T08:22:49;13.50;70.30
7900;DHT22;3995;50.856;4.404;2023-04-01T08:25:21;13.40;70.20
7900;DHT22;3995;50.856;4.404;2023-04-01T08:27:55;13.50;70.30
7900;DHT22;3995;50.856;4.404;2023-04-01T08:30:26;13.50;70.20
7900;DHT22;3995;50.856;4.404;2023-04-01T08:32:58;13.40;70.10
7900;DHT22;3995;50.856;4.404;2023-04-01T08:35:29;13.40;70.10
7900;DHT22;3995;50.856;4.404;2023-04-01T08:38:01;13.40;70.20
7900;DHT22;3995;50.856;4.404;2023-04-01T08:40:48;13.40;70.10
7900;DHT22;3995;50.856;4.404;2023-04-01T08:43:25;13.50;70.20
7900;DHT22;3995;50.856;4.404;2023-04-01T08:46:12;13.50;70.30
7900;DHT22;3995;50.856;4.404;2023-04-01T08:48:52;13.50;70.20
7900;DHT22;3995;50.856;4.404;2023-04-01T08:51:48;13.50;70.20
7900;DHT22;3995;50.856;4.404;2023-04-01T08:57:31;13.50;70.30
7900;DHT22;3995;50.856;4.404;2023-04-01T09:00:10;13.50;70.30
7900;DHT22;3995;50.856;4.404;2023-04-01T09:02:56;13.50;70.30
7900;DHT22;3995;50.856;4.404;2023-04-01T09:08:38;13.50;70.30
7900;DHT22;3995;50.856;4.404;2023-04-01T09:11:20;13.50;70.50
7900;DHT22;3995;50.856;4.404;2023-04-01T09:17:20;13.50;70.60
7900;DHT22;3995;50.856;4.404;2023-04-01T09:20:13;13.50;70.60
7900;DHT22;3995;50.856;4.404;2023-04-01T09:22:51;13.50;70.70
7900;DHT22;3995;50.856;4.404;2023-04-01T09:25:36;13.50;70.70
7900;DHT22;3995;50.856;4.404;2023-04-01T09:28:12;13.50;70.60
7900;DHT22;3995;50.856;4.404;2023-04-01T09:31:04;13.50;70.60
7900;DHT22;3995;50.856;4.404;2023-04-01T09:33:51;13.50;70.50
7900;DHT22;3995;50.856;4.404;2023-04-01T09:36:38;13.50;70.50
7900;DHT22;3995;50.856;4.404;2023-04-01T09:42:13;13.50;70.70
7900;DHT22;3995;50.856;4.404;2023-04-01T09:44:47;13.50;70.90
7900;DHT22;3995;50.856;4.404;2023-04-01T09:47:26;13.50;70.90
7900;DHT22;3995;50.856;4.404;2023-04-01T09:53:15;13.60;71.00
7900;DHT22;3995;50.856;4.404;2023-04-01T09:59:15;13.60;70.90
7900;DHT22;3995;50.856;4.404;2023-04-01T10:18:07;13.60;70.80
7900;DHT22;3995;50.856;4.404;2023-04-01T10:20:59;13.70;70.90
7900;DHT22;3995;50.856;4.404;2023-04-01T10:26:55;13.70;70.80
7900;DHT22;3995;50.856;4.404;2023-04-01T10:32:43;13.70;70.70
7900;DHT22;3995;50.856;4.404;2023-04-01T10:35:29;13.60;70.70
7900;DHT22;3995;50.856;4.404;2023-04-01T10:38:35;13.70;70.60
7900;DHT22;3995;50.856;4.404;2023-04-01T10:48:03;13.70;70.50
7900;DHT22;3995;50.856;4.404;2023-04-01T10:51:00;13.70;70.50
7900;DHT22;3995;50.856;4.404;2023-04-01T10:53:38;13.80;70.70
7900;DHT22;3995;50.856;4.404;2023-04-01T10:56:36;13.70;70.80
7900;DHT22;3995;50.856;4.404;2023-04-01T11:03:01;13.80;70.70
7900;DHT22;3995;50.856;4.404;2023-04-01T11:12:07;13.80;70.50
7900;DHT22;3995;50.856;4.404;2023-04-01T11:15:10;13.70;70.30
7900;DHT22;3995;50.856;4.404;2023-04-01T11:24:07;13.70;70.50
7900;DHT22;3995;50.856;4.404;2023-04-01T11:26:50;13.70;70.80
7900;DHT22;3995;50.856;4.404;2023-04-01T11:29:44;13.80;71.00
7900;DHT22;3995;50.856;4.404;2023-04-01T11:32:28;13.80;71.10
7900;DHT22;3995;50.856;4.404;2023-04-01T11:35:02;13.80;71.20
7900;DHT22;3995;50.856;4.404;2023-04-01T11:37:40;13.80;71.20
7900;DHT22;3995;50.856;4.404;2023-04-01T11:40:19;13.80;71.10
7900;DHT22;3995;50.856;4.404;2023-04-01T11:42:54;13.90;71.00
7900;DHT22;3995;50.856;4.404;2023-04-01T11:45:32;13.80;71.10
7900;DHT22;3995;50.856;4.404;2023-04-01T11:48:22;13.90;71.10
7900;DHT22;3995;50.856;4.404;2023-04-01T11:51:19;13.90;70.90
7900;DHT22;3995;50.856;4.404;2023-04-01T11:53:57;13.90;70.90
7900;DHT22;3995;50.856;4.404;2023-04-01T11:56:44;13.90;70.90
7900;DHT22;3995;50.856;4.404;2023-04-01T11:59:46;13.90;70.60
7900;DHT22;3995;50.856;4.404;2023-04-01T12:02:23;13.90;70.40
7900;DHT22;3995;50.856;4.404;2023-04-01T12:05:08;13.90;70.40
7900;DHT22;3995;50.856;4.404;2023-04-01T12:10:59;13.90;69.70
7900;DHT22;3995;50.856;4.404;2023-04-01T12:13:35;13.90;70.10
7900;DHT22;3995;50.856;4.404;2023-04-01T12:16:20;13.90;70.20
7900;DHT22;3995;50.856;4.404;2023-04-01T12:18:54;13.90;69.80
7900;DHT22;3995;50.856;4.404;2023-04-01T12:21:27;13.90;69.70
7900;DHT22;3995;50.856;4.404;2023-04-01T12:24:29;13.90;69.70
7900;DHT22;3995;50.856;4.404;2023-04-01T12:27:26;13.90;69.60
7900;DHT22;3995;50.856;4.404;2023-04-01T12:30:24;13.90;69.60
7900;DHT22;3995;50.856;4.404;2023-04-01T12:33:19;13.90;69.60
7900;DHT22;3995;50.856;4.404;2023-04-01T12:35:59;13.90;69.70
7900;DHT22;3995;50.856;4.404;2023-04-01T12:38:35;13.80;69.80
7900;DHT22;3995;50.856;4.404;2023-04-01T12:41:09;13.80;69.70
7900;DHT22;3995;50.856;4.404;2023-04-01T12:47:10;13.90;69.90
7900;DHT22;3995;50.856;4.404;2023-04-01T12:49:56;13.90;69.90
7900;DHT22;3995;50.856;4.404;2023-04-01T12:52:39;13.80;69.90
7900;DHT22;3995;50.856;4.404;2023-04-01T12:55:40;13.80;69.80
7900;DHT22;3995;50.856;4.404;2023-04-01T12:58:38;13.80;69.50
7900;DHT22;3995;50.856;4.404;2023-04-01T13:01:29;13.80;69.60
7900;DHT22;3995;50.856;4.404;2023-04-01T13:04:37;13.80;69.90
7900;DHT22;3995;50.856;4.404;2023-04-01T13:07:34;13.80;69.90
7900;DHT22;3995;50.856;4.404;2023-04-01T13:10:11;13.80;70.10
7900;DHT22;3995;50.856;4.404;2023-04-01T13:13:11;13.70;70.30
7900;DHT22;3995;50.856;4.404;2023-04-01T13:15:46;13.80;70.00
7900;DHT22;3995;50.856;4.404;2023-04-01T13:18:24;13.70;70.10
7900;DHT22;3995;50.856;4.404;2023-04-01T13:21:03;13.80;70.10
7900;DHT22;3995;50.856;4.404;2023-04-01T13:23:41;13.80;69.90
7900;DHT22;3995;50.856;4.404;2023-04-01T13:26:19;13.80;69.80
7900;DHT22;3995;50.856;4.404;2023-04-01T13:28:53;13.70;69.80
7900;DHT22;3995;50.856;4.404;2023-04-01T13:31:36;13.80;69.80
7900;DHT22;3995;50.856;4.404;2023-04-01T13:34:25;13.80;69.60
7900;DHT22;3995;50.856;4.404;2023-04-01T13:37:04;13.80;69.90
7900;DHT22;3995;50.856;4.404;2023-04-01T13:39:44;13.80;70.00
7900;DHT22;3995;50.856;4.404;2023-04-01T13:42:21;13.80;70.10
7900;DHT22;3995;50.856;4.404;2023-04-01T13:44:55;13.80;70.10
7900;DHT22;3995;50.856;4.404;2023-04-01T13:50:34;13.80;70.10
7900;DHT22;3995;50.856;4.404;2023-04-01T13:53:23;13.80;70.30
7900;DHT22;3995;50.856;4.404;2023-04-01T13:56:07;13.80;70.20
7900;DHT22;3995;50.856;4.404;2023-04-01T13:58:58;13.80;70.20
7900;DHT22;3995;50.856;4.404;2023-04-01T14:01:35;13.80;70.20
7900;DHT22;3995;50.856;4.404;2023-04-01T14:04:42;13.80;70.20
7900;DHT22;3995;50.856;4.404;2023-04-01T14:07:25;13.80;69.90
7900;DHT22;3995;50.856;4.404;2023-04-01T14:10:07;13.80;69.80
7900;DHT22;3995;50.856;4.404;2023-04-01T14:12:40;13.80;69.60
7900;DHT22;3995;50.856;4.404;2023-04-01T14:18:30;13.80;69.40
7900;DHT22;3995;50.856;4.404;2023-04-01T14:21:11;13.80;69.80
7900;DHT22;3995;50.856;4.404;2023-04-01T14:24:00;13.80;69.80
7900;DHT22;3995;50.856;4.404;2023-04-01T14:29:56;13.80;69.90
7900;DHT22;3995;50.856;4.404;2023-04-01T14:32:34;13.80;70.00
7900;DHT22;3995;50.856;4.404;2023-04-01T14:35:21;13.80;69.90
7900;DHT22;3995;50.856;4.404;2023-04-01T14:38:02;13.80;69.80
7900;DHT22;3995;50.856;4.404;2023-04-01T14:40:45;13.80;69.80
7900;DHT22;3995;50.856;4.404;2023-04-01T14:43:42;13.80;69.60
7900;DHT22;3995;50.856;4.404;2023-04-01T14:49:43;13.80;69.40
7900;DHT22;3995;50.856;4.404;2023-04-01T14:52:17;13.70;69.60
7900;DHT22;3995;50.856;4.404;2023-04-01T14:54:50;13.80;69.60
7900;DHT22;3995;50.856;4.404;2023-04-01T14:57:23;13.80;69.70
7900;DHT22;3995;50.856;4.404;2023-04-01T14:59:58;13.80;69.60
7900;DHT22;3995;50.856;4.404;2023-04-01T15:02:37;13.80;69.60
7900;DHT22;3995;50.856;4.404;2023-04-01T15:05:20;13.80;69.20
7900;DHT22;3995;50.856;4.404;2023-04-01T15:08:05;13.80;69.30
7900;DHT22;3995;50.856;4.404;2023-04-01T15:17:19;13.80;69.30
7900;DHT22;3995;50.856;4.404;2023-04-01T15:20:02;13.80;69.20
7900;DHT22;3995;50.856;4.404;2023-04-01T15:22:56;13.80;69.20
7900;DHT22;3995;50.856;4.404;2023-04-01T15:25:34;13.80;69.00
7900;DHT22;3995;50.856;4.404;2023-04-01T15:28:14;13.70;69.10
7900;DHT22;3995;50.856;4.404;2023-04-01T15:30:51;13.80;69.00
7900;DHT22;3995;50.856;4.404;2023-04-01T15:33:39;13.70;68.90
7900;DHT22;3995;50.856;4.404;2023-04-01T15:36:19;13.80;69.00
7900;DHT22;3995;50.856;4.404;2023-04-01T15:38:56;13.80;69.10
7900;DHT22;3995;50.856;4.404;2023-04-01T15:41:35;13.80;69.20
7900;DHT22;3995;50.856;4.404;2023-04-01T15:44:31;13.80;69.20
7900;DHT22;3995;50.856;4.404;2023-04-01T15:47:16;13.80;69.20
7900;DHT22;3995;50.856;4.404;2023-04-01T15:49:57;13.80;69.20
7900;DHT22;3995;50.856;4.404;2023-04-01T15:52:36;13.80;69.20
7900;DHT22;3995;50.856;4.404;2023-04-01T15:55:14;13.80;68.90
7900;DHT22;3995;50.856;4.404;2023-04-01T15:57:54;13.80;69.00
7900;DHT22;3995;50.856;4.404;2023-04-01T16:00:26;13.80;69.00
7900;DHT22;3995;50.856;4.404;2023-04-01T16:03:17;13.70;68.70
7900;DHT22;3995;50.856;4.404;2023-04-01T16:06:08;13.80;68.20
7900;DHT22;3995;50.856;4.404;2023-04-01T16:09:01;13.70;68.10
7900;DHT22;3995;50.856;4.404;2023-04-01T16:11:37;13.70;68.10
7900;DHT22;3995;50.856;4.404;2023-04-01T16:14:14;13.70;68.10
7900;DHT22;3995;50.856;4.404;2023-04-01T16:16:54;13.60;68.10
7900;DHT22;3995;50.856;4.404;2023-04-01T16:19:45;13.70;68.10
7900;DHT22;3995;50.856;4.404;2023-04-01T16:22:22;13.60;68.00
7900;DHT22;3995;50.856;4.404;2023-04-01T16:24:55;13.60;68.10
7900;DHT22;3995;50.856;4.404;2023-04-01T16:27:31;13.60;68.10
7900;DHT22;3995;50.856;4.404;2023-04-01T16:30:03;13.60;68.00
7900;DHT22;3995;50.856;4.404;2023-04-01T16:32:49;13.60;68.00
7900;DHT22;3995;50.856;4.404;2023-04-01T16:35:34;13.60;68.10
7900;DHT22;3995;50.856;4.404;2023-04-01T16:38:11;13.70;68.00
7900;DHT22;3995;50.856;4.404;2023-04-01T16:40:49;13.60;68.10
7900;DHT22;3995;50.856;4.404;2023-04-01T16:43:28;13.60;68.20
7900;DHT22;3995;50.856;4.404;2023-04-01T16:46:15;13.60;68.30
7900;DHT22;3995;50.856;4.404;2023-04-01T16:48:58;13.60;68.20
7900;DHT22;3995;50.856;4.404;2023-04-01T16:51:34;13.60;68.40
7900;DHT22;3995;50.856;4.404;2023-04-01T16:54:13;13.60;68.50
7900;DHT22;3995;50.856;4.404;2023-04-01T16:56:44;13.60;68.50
7900;DHT22;3995;50.856;4.404;2023-04-01T16:59:21;13.60;68.60
7900;DHT22;3995;50.856;4.404;2023-04-01T17:01:52;13.60;68.50
7900;DHT22;3995;50.856;4.404;2023-04-01T17:04:30;13.60;68.50
7900;DHT22;3995;50.856;4.404;2023-04-01T17:07:06;13.60;68.50
7900;DHT22;3995;50.856;4.404;2023-04-01T17:09:56;13.60;68.60
7900;DHT22;3995;50.856;4.404;2023-04-01T17:12:30;13.60;68.70
7900;DHT22;3995;50.856;4.404;2023-04-01T17:15:04;13.60;68.90
7900;DHT22;3995;50.856;4.404;2023-04-01T17:17:45;13.60;68.70
7900;DHT22;3995;50.856;4.404;2023-04-01T17:20:48;13.60;68.70
7900;DHT22;3995;50.856;4.404;2023-04-01T17:23:23;13.60;68.60
7900;DHT22;3995;50.856;4.404;2023-04-01T17:26:15;13.60;68.80
7900;DHT22;3995;50.856;4.404;2023-04-01T17:28:47;13.60;68.50
7900;DHT22;3995;50.856;4.404;2023-04-01T17:31:33;13.60;68.80
7900;DHT22;3995;50.856;4.404;2023-04-01T17:34:17;13.60;68.90
7900;DHT22;3995;50.856;4.404;2023-04-01T17:36:57;13.60;68.80
7900;DHT22;3995;50.856;4.404;2023-04-01T17:39:42;13.50;68.90
7900;DHT22;3995;50.856;4.404;2023-04-01T17:42:15;13.60;69.10
7900;DHT22;3995;50.856;4.404;2023-04-01T17:44:58;13.50;69.10
7900;DHT22;3995;50.856;4.404;2023-04-01T17:47:58;13.60;69.00
7900;DHT22;3995;50.856;4.404;2023-04-01T17:50:37;13.60;68.90
7900;DHT22;3995;50.856;4.404;2023-04-01T17:53:22;13.50;69.10
7900;DHT22;3995;50.856;4.404;2023-04-01T17:56:06;13.60;69.20
7900;DHT22;3995;50.856;4.404;2023-04-01T17:58:44;13.50;69.20
7900;DHT22;3995;50.856;4.404;2023-04-01T18:01:30;13.50;69.20
7900;DHT22;3995;50.856;4.404;2023-04-01T18:04:18;13.60;69.20
7900;DHT22;3995;50.856;4.404;2023-04-01T18:09:53;13.50;69.20
7900;DHT22;3995;50.856;4.404;2023-04-01T18:12:30;13.50;69.30
7900;DHT22;3995;50.856;4.404;2023-04-01T18:15:11;13.50;69.20
7900;DHT22;3995;50.856;4.404;2023-04-01T18:17:55;13.50;69.20
7900;DHT22;3995;50.856;4.404;2023-04-01T18:20:31;13.50;69.30
7900;DHT22;3995;50.856;4.404;2023-04-01T18:23:04;13.50;69.40
7900;DHT22;3995;50.856;4.404;2023-04-01T18:25:38;13.50;69.50
7900;DHT22;3995;50.856;4.404;2023-04-01T18:28:32;13.50;69.40
7900;DHT22;3995;50.856;4.404;2023-04-01T18:31:08;13.60;69.10
7900;DHT22;3995;50.856;4.404;2023-04-01T18:33:45;13.50;69.30
7900;DHT22;3995;50.856;4.404;2023-04-01T18:36:19;13.50;69.40
7900;DHT22;3995;50.856;4.404;2023-04-01T18:38:52;13.50;69.40
7900;DHT22;3995;50.856;4.404;2023-04-01T18:41:26;13.50;69.40